sensor_id;sensor_type;location;lat;lon;timestamp;P1;durP1;ratioP1;P2;durP2;ratioP2
11541;SDS011;5827;49.482;7.716;2023-04-09T00:01:37;12.63;;;9.57;;
11541;SDS011;5827;49.482;7.716;2023-04-09T00:03:39;10.37;;;8.90;;
11541;SDS011;5827;49.482;7.716;2023-04-09T00:05:41;9.53;;;8.47;;
11541;SDS011;5827;49.482;7.716;2023-04-09T00:07:42;10.63;;;8.57;;
11541;SDS011;5827;49.482;7.716;2023-04-09T00:09:44;10.50;;;8.80;;
11541;SDS011;5827;49.482;7.716;2023-04-09T00:11:45;11.53;;;8.57;;
11541;SDS011;5827;49.482;7.716;2023-04-09T00:13:47;14.50;;;9.17;;
11541;SDS011;5827;49.482;7.716;2023-04-09T00:15:48;9.80;;;8.50;;
11541;SDS011;5827;49.482;7.716;2023-04-09T00:17:51;11.97;;;9.17;;
11541;SDS011;5827;49.482;7.716;2023-04-09T00:19:52;10.37;;;9.00;;
11541;SDS011;5827;49.482;7.716;2023-04-09T00:21:54;9.90;;;8.40;;
11541;SDS011;5827;49.482;7.716;2023-04-09T00:23:56;10.17;;;8.77;;
11541;SDS011;5827;49.482;7.716;2023-04-09T00:25:57;8.93;;;8.03;;
11541;SDS011;5827;49.482;7.716;2023-04-09T00:27:59;11.57;;;8.93;;
11541;SDS011;5827;49.482;7.716;2023-04-09T00:30:00;9.87;;;8.37;;
11541;SDS011;5827;49.482;7.716;2023-04-09T00:32:02;11.33;;;8.47;;
11541;SDS011;5827;49.482;7.716;2023-04-09T00:34:04;9.37;;;7.60;;
11541;SDS011;5827;49.482;7.716;2023-04-09T00:36:06;10.63;;;8.87;;
11541;SDS011;5827;49.482;7.716;2023-04-09T00:38:08;11.23;;;8.50;;
11541;SDS011;5827;49.482;7.716;2023-04-09T00:40:09;10.40;;;8.37;;
11541;SDS011;5827;49.482;7.716;2023-04-09T00:42:11;9.37;;;8.37;;
11541;SDS011;5827;49.482;7.716;2023-04-09T00:44:13;9.87;;;8.50;;
11541;SDS011;5827;49.482;7.716;2023-04-09T00:46:14;9.83;;;8.10;;
11541;SDS011;5827;49.482;7.716;2023-04-09T00:48:17;10.50;;;8.07;;
11541;SDS011;5827;49.482;7.716;2023-04-09T00:50:20;9.43;;;8.43;;
11541;SDS011;5827;49.482;7.716;2023-04-09T00:52:22;10.13;;;8.57;;
11541;SDS011;5827;49.482;7.716;2023-04-09T00:54:24;10.33;;;8.70;;
11541;SDS011;5827;49.482;7.716;2023-04-09T00:56:25;10.17;;;8.77;;
11541;SDS011;5827;49.482;7.716;2023-04-09T00:58:28;10.63;;;8.67;;
11541;SDS011;5827;49.482;7.716;2023-04-09T01:00:29;9.40;;;8.33;;
11541;SDS011;5827;49.482;7.716;2023-04-09T01:02:31;11.47;;;9.03;;
11541;SDS011;5827;49.482;7.716;2023-04-09T01:04:33;10.20;;;8.10;;
11541;SDS011;5827;49.482;7.716;2023-04-09T01:06:40;9.73;;;8.70;;
11541;SDS011;5827;49.482;7.716;2023-04-09T01:08:47;10.63;;;8.10;;
11541;SDS011;5827;49.482;7.716;2023-04-09T01:10:57;9.77;;;8.10;;
11541;SDS011;5827;49.482;7.716;2023-04-09T01:13:06;8.67;;;7.77;;
11541;SDS011;5827;49.482;7.716;2023-04-09T01:15:13;11.63;;;8.43;;
11541;SDS011;5827;49.482;7.716;2023-04-09T01:17:23;10.63;;;8.13;;
11541;SDS011;5827;49.482;7.716;2023-04-09T01:19:33;10.20;;;8.47;;
11541;SDS011;5827;49.482;7.716;2023-04-09T01:21:42;11.10;;;8.80;;
11541;SDS011;5827;49.482;7.716;2023-04-09T01:23:46;10.77;;;8.30;;
11541;SDS011;5827;49.482;7.716;2023-04-09T01:25:58;10.70;;;8.57;;
11541;SDS011;5827;49.482;7.716;2023-04-09T01:28:15;10.83;;;8.70;;
11541;SDS011;5827;49.482;7.716;2023-04-09T01:30:18;8.77;;;7.87;;
11541;SDS011;5827;49.482;7.716;2023-04-09T01:32:22;8.73;;;7.83;;
11541;SDS011;5827;49.482;7.716;2023-04-09T01:34:25;10.23;;;8.07;;
11541;SDS011;5827;49.482;7.716;2023-04-09T01:36:28;9.83;;;8.53;;
11541;SDS011;5827;49.482;7.716;2023-04-09T01:38:31;9.73;;;8.23;;
11541;SDS011;5827;49.482;7.716;2023-04-09T01:40:35;9.50;;;7.87;;
11541;SDS011;5827;49.482;7.716;2023-04-09T01:42:37;10.80;;;8.27;;
11541;SDS011;5827;49.482;7.716;2023-04-09T01:44:41;11.90;;;9.03;;
11541;SDS011;5827;49.482;7.716;2023-04-09T01:46:46;9.77;;;7.93;;
11541;SDS011;5827;49.482;7.716;2023-04-09T01:48:50;9.60;;;8.53;;
11541;SDS011;5827;49.482;7.716;2023-04-09T01:50:52;9.57;;;8.57;;
11541;SDS011;5827;49.482;7.716;2023-04-09T01:52:54;12.83;;;8.77;;
11541;SDS011;5827;49.482;7.716;2023-04-09T01:54:56;10.63;;;8.73;;
11541;SDS011;5827;49.482;7.716;2023-04-09T01:56:57;9.20;;;8.23;;
11541;SDS011;5827;49.482;7.716;2023-04-09T01:59:00;9.43;;;8.00;;
11541;SDS011;5827;49.482;7.716;2023-04-09T02:01:04;9.93;;;7.93;;
11541;SDS011;5827;49.482;7.716;2023-04-09T02:03:09;10.23;;;8.43;;
11541;SDS011;5827;49.482;7.716;2023-04-09T02:05:16;10.83;;;8.37;;
11541;SDS011;5827;49.482;7.716;2023-04-09T02:07:23;10.70;;;8.10;;
11541;SDS011;5827;49.482;7.716;2023-04-09T02:09:30;10.63;;;8.37;;
11541;SDS011;5827;49.482;7.716;2023-04-09T02:11:34;10.83;;;8.17;;
11541;SDS011;5827;49.482;7.716;2023-04-09T02:13:38;9.10;;;8.10;;
11541;SDS011;5827;49.482;7.716;2023-04-09T02:15:41;10.03;;;8.47;;
11541;SDS011;5827;49.482;7.716;2023-04-09T02:17:44;9.57;;;7.80;;
11541;SDS011;5827;49.482;7.716;2023-04-09T02:19:47;11.17;;;8.60;;
11541;SDS011;5827;49.482;7.716;2023-04-09T02:21:48;10.03;;;7.97;;
11541;SDS011;5827;49.482;7.716;2023-04-09T02:23:50;9.50;;;7.90;;
11541;SDS011;5827;49.482;7.716;2023-04-09T02:25:52;9.50;;;7.83;;
11541;SDS011;5827;49.482;7.716;2023-04-09T02:27:54;11.53;;;7.90;;
11541;SDS011;5827;49.482;7.716;2023-04-09T02:29:55;9.27;;;7.73;;
11541;SDS011;5827;49.482;7.716;2023-04-09T02:31:57;8.83;;;7.87;;
11541;SDS011;5827;49.482;7.716;2023-04-09T02:34:00;10.00;;;7.40;;
11541;SDS011;5827;49.482;7.716;2023-04-09T02:36:01;9.37;;;8.20;;
11541;SDS011;5827;49.482;7.716;2023-04-09T02:38:03;11.20;;;8.57;;
11541;SDS011;5827;49.482;7.716;2023-04-09T02:40:05;9.73;;;7.73;;
11541;SDS011;5827;49.482;7.716;2023-04-09T02:42:07;10.00;;;7.80;;
11541;SDS011;5827;49.482;7.716;2023-04-09T02:44:08;9.27;;;7.80;;
11541;SDS011;5827;49.482;7.716;2023-04-09T02:46:10;9.67;;;8.23;;
11541;SDS011;5827;49.482;7.716;2023-04-09T02:48:11;10.00;;;8.03;;
11541;SDS011;5827;49.482;7.716;2023-04-09T02:50:15;8.90;;;7.43;;
11541;SDS011;5827;49.482;7.716;2023-04-09T02:52:17;10.07;;;8.43;;
11541;SDS011;5827;49.482;7.716;2023-04-09T02:54:21;9.83;;;7.97;;
11541;SDS011;5827;49.482;7.716;2023-04-09T02:56:23;8.43;;;7.53;;
11541;SDS011;5827;49.482;7.716;2023-04-09T02:58:24;9.50;;;7.90;;
11541;SDS011;5827;49.482;7.716;2023-04-09T03:00:26;10.20;;;8.50;;
11541;SDS011;5827;49.482;7.716;2023-04-09T03:02:27;10.43;;;8.20;;
11541;SDS011;5827;49.482;7.716;2023-04-09T03:04:29;8.83;;;7.43;;
11541;SDS011;5827;49.482;7.716;2023-04-09T03:06:31;9.30;;;7.47;;
11541;SDS011;5827;49.482;7.716;2023-04-09T03:08:33;10.77;;;7.70;;
11541;SDS011;5827;49.482;7.716;2023-04-09T03:10:35;10.20;;;8.47;;
11541;SDS011;5827;49.482;7.716;2023-04-09T03:12:36;9.03;;;7.90;;
11541;SDS011;5827;49.482;7.716;2023-04-09T03:14:37;8.73;;;7.80;;
11541;SDS011;5827;49.482;7.716;2023-04-09T03:16:39;8.67;;;7.77;;
11541;SDS011;5827;49.482;7.716;2023-04-09T03:18:40;10.30;;;8.50;;
11541;SDS011;5827;49.482;7.716;2023-04-09T03:20:42;9.23;;;7.50;;
11541;SDS011;5827;49.482;7.716;2023-04-09T03:22:45;9.47;;;7.70;;
11541;SDS011;5827;49.482;7.716;2023-04-09T03:24:47;8.63;;;7.37;;
11541;SDS011;5827;49.482;7.716;2023-04-09T03:26:48;8.80;;;6.87;;
11541;SDS011;5827;49.482;7.716;2023-04-09T03:28:49;10.10;;;7.60;;
11541;SDS011;5827;49.482;7.716;2023-04-09T03:30:51;10.57;;;8.33;;
11541;SDS011;5827;49.482;7.716;2023-04-09T03:32:52;8.83;;;7.17;;
11541;SDS011;5827;49.482;7.716;2023-04-09T03:34:54;9.43;;;8.23;;
11541;SDS011;5827;49.482;7.716;2023-04-09T03:36:55;8.93;;;8.00;;
11541;SDS011;5827;49.482;7.716;2023-04-09T03:38:58;8.33;;;7.03;;
11541;SDS011;5827;49.482;7.716;2023-04-09T03:41:00;8.57;;;7.20;;
11541;SDS011;5827;49.482;7.716;2023-04-09T03:43:02;9.23;;;7.30;;
11541;SDS011;5827;49.482;7.716;2023-04-09T03:45:04;9.47;;;7.50;;
11541;SDS011;5827;49.482;7.716;2023-04-09T03:47:06;10.17;;;7.10;;
11541;SDS011;5827;49.482;7.716;2023-04-09T03:49:07;8.47;;;7.20;;
11541;SDS011;5827;49.482;7.716;2023-04-09T03:51:10;9.60;;;7.63;;
11541;SDS011;5827;49.482;7.716;2023-04-09T03:53:12;10.93;;;7.33;;
11541;SDS011;5827;49.482;7.716;2023-04-09T03:55:15;10.40;;;8.00;;
11541;SDS011;5827;49.482;7.716;2023-04-09T03:57:17;7.83;;;7.03;;
11541;SDS011;5827;49.482;7.716;2023-04-09T03:59:18;11.33;;;8.20;;
11541;SDS011;5827;49.482;7.716;2023-04-09T04:01:20;7.90;;;6.90;;
11541;SDS011;5827;49.482;7.716;2023-04-09T04:03:21;9.13;;;7.70;;
11541;SDS011;5827;49.482;7.716;2023-04-09T04:05:23;9.13;;;7.53;;
11541;SDS011;5827;49.482;7.716;2023-04-09T04:07:25;9.93;;;7.70;;
11541;SDS011;5827;49.482;7.716;2023-04-09T04:09:26;9.10;;;7.23;;
11541;SDS011;5827;49.482;7.716;2023-04-09T04:11:29;11.37;;;7.73;;
11541;SDS011;5827;49.482;7.716;2023-04-09T04:13:31;8.97;;;7.73;;
11541;SDS011;5827;49.482;7.716;2023-04-09T04:15:32;12.03;;;8.57;;
11541;SDS011;5827;49.482;7.716;2023-04-09T04:17:34;9.33;;;7.43;;
11541;SDS011;5827;49.482;7.716;2023-04-09T04:19:35;9.53;;;7.53;;
11541;SDS011;5827;49.482;7.716;2023-04-09T04:21:37;8.83;;;7.60;;
11541;SDS011;5827;49.482;7.716;2023-04-09T04:23:38;9.67;;;8.27;;
11541;SDS011;5827;49.482;7.716;2023-04-09T04:25:40;9.13;;;7.40;;
11541;SDS011;5827;49.482;7.716;2023-04-09T04:27:43;10.13;;;7.63;;
11541;SDS011;5827;49.482;7.716;2023-04-09T04:29:44;9.80;;;8.20;;
11541;SDS011;5827;49.482;7.716;2023-04-09T04:31:46;8.57;;;7.10;;
11541;SDS011;5827;49.482;7.716;2023-04-09T04:33:47;9.17;;;7.80;;
11541;SDS011;5827;49.482;7.716;2023-04-09T04:35:49;9.67;;;8.33;;
11541;SDS011;5827;49.482;7.716;2023-04-09T04:37:50;9.13;;;7.40;;
11541;SDS011;5827;49.482;7.716;2023-04-09T04:39:52;9.17;;;7.73;;
11541;SDS011;5827;49.482;7.716;2023-04-09T04:41:53;9.73;;;7.60;;
11541;SDS011;5827;49.482;7.716;2023-04-09T04:43:57;9.40;;;7.47;;
11541;SDS011;5827;49.482;7.716;2023-04-09T04:45:58;11.43;;;8.40;;
11541;SDS011;5827;49.482;7.716;2023-04-09T04:48:00;8.90;;;7.73;;
11541;SDS011;5827;49.482;7.716;2023-04-09T04:50:01;9.63;;;7.60;;
11541;SDS011;5827;49.482;7.716;2023-04-09T04:52:03;9.77;;;7.97;;
11541;SDS011;5827;49.482;7.716;2023-04-09T04:54:05;9.40;;;7.40;;
11541;SDS011;5827;49.482;7.716;2023-04-09T04:56:11;9.47;;;7.33;;
11541;SDS011;5827;49.482;7.716;2023-04-09T04:58:13;10.00;;;7.87;;
11541;SDS011;5827;49.482;7.716;2023-04-09T05:00:16;10.23;;;7.40;;
11541;SDS011;5827;49.482;7.716;2023-04-09T05:02:17;9.00;;;7.50;;
11541;SDS011;5827;49.482;7.716;2023-04-09T05:04:19;9.83;;;7.60;;
11541;SDS011;5827;49.482;7.716;2023-04-09T05:06:20;9.60;;;7.77;;
11541;SDS011;5827;49.482;7.716;2023-04-09T05:08:22;9.23;;;7.67;;
11541;SDS011;5827;49.482;7.716;2023-04-09T05:10:23;13.27;;;8.00;;
11541;SDS011;5827;49.482;7.716;2023-04-09T05:12:25;10.47;;;8.43;;
11541;SDS011;5827;49.482;7.716;2023-04-09T05:14:27;9.63;;;7.70;;
11541;SDS011;5827;49.482;7.716;2023-04-09T05:16:29;10.57;;;8.13;;
11541;SDS011;5827;49.482;7.716;2023-04-09T05:18:31;10.90;;;7.90;;
11541;SDS011;5827;49.482;7.716;2023-04-09T05:20:32;9.10;;;7.60;;
11541;SDS011;5827;49.482;7.716;2023-04-09T05:22:34;11.20;;;8.63;;
11541;SDS011;5827;49.482;7.716;2023-04-09T05:24:36;9.57;;;7.83;;
11541;SDS011;5827;49.482;7.716;2023-04-09T05:26:37;11.53;;;8.37;;
11541;SDS011;5827;49.482;7.716;2023-04-09T05:28:39;12.43;;;8.77;;
11541;SDS011;5827;49.482;7.716;2023-04-09T05:30:40;10.83;;;8.50;;
11541;SDS011;5827;49.482;7.716;2023-04-09T05:32:43;9.37;;;7.80;;
11541;SDS011;5827;49.482;7.716;2023-04-09T05:34:45;12.60;;;8.93;;
11541;SDS011;5827;49.482;7.716;2023-04-09T05:36:46;11.17;;;8.37;;
11541;SDS011;5827;49.482;7.716;2023-04-09T05:38:48;11.73;;;8.87;;
11541;SDS011;5827;49.482;7.716;2023-04-09T05:40:49;11.97;;;9.07;;
11541;SDS011;5827;49.482;7.716;2023-04-09T05:42:51;13.17;;;8.83;;
11541;SDS011;5827;49.482;7.716;2023-04-09T05:44:52;13.00;;;9.70;;
11541;SDS011;5827;49.482;7.716;2023-04-09T05:46:55;11.73;;;9.03;;
11541;SDS011;5827;49.482;7.716;2023-04-09T05:48:58;12.80;;;9.50;;
11541;SDS011;5827;49.482;7.716;2023-04-09T05:50:59;12.17;;;9.07;;
11541;SDS011;5827;49.482;7.716;2023-04-09T05:53:01;13.30;;;9.03;;
11541;SDS011;5827;49.482;7.716;2023-04-09T05:55:02;13.87;;;9.67;;
11541;SDS011;5827;49.482;7.716;2023-04-09T05:57:05;11.93;;;10.03;;
11541;SDS011;5827;49.482;7.716;2023-04-09T05:59:07;11.80;;;9.67;;
11541;SDS011;5827;49.482;7.716;2023-04-09T06:01:08;12.47;;;9.73;;
11541;SDS011;5827;49.482;7.716;2023-04-09T06:03:10;13.10;;;9.03;;
11541;SDS011;5827;49.482;7.716;2023-04-09T06:05:13;10.43;;;8.33;;
11541;SDS011;5827;49.482;7.716;2023-04-09T06:07:14;14.40;;;8.97;;
11541;SDS011;5827;49.482;7.716;2023-04-09T06:09:16;10.97;;;8.77;;
11541;SDS011;5827;49.482;7.716;2023-04-09T06:11:18;12.80;;;9.10;;
11541;SDS011;5827;49.482;7.716;2023-04-09T06:13:20;11.07;;;9.47;;
11541;SDS011;5827;49.482;7.716;2023-04-09T06:15:21;11.10;;;9.70;;
11541;SDS011;5827;49.482;7.716;2023-04-09T06:17:23;12.37;;;9.60;;
11541;SDS011;5827;49.482;7.716;2023-04-09T06:19:24;13.20;;;9.90;;
11541;SDS011;5827;49.482;7.716;2023-04-09T06:21:27;12.07;;;9.73;;
11541;SDS011;5827;49.482;7.716;2023-04-09T06:23:29;12.43;;;9.37;;
11541;SDS011;5827;49.482;7.716;2023-04-09T06:25:30;26.97;;;20.03;;
11541;SDS011;5827;49.482;7.716;2023-04-09T06:27:32;14.70;;;10.60;;
11541;SDS011;5827;49.482;7.716;2023-04-09T06:29:33;11.80;;;9.67;;
11541;SDS011;5827;49.482;7.716;2023-04-09T06:31:35;12.70;;;11.00;;
11541;SDS011;5827;49.482;7.716;2023-04-09T06:33:36;12.73;;;10.20;;
11541;SDS011;5827;49.482;7.716;2023-04-09T06:35:38;13.00;;;9.70;;
11541;SDS011;5827;49.482;7.716;2023-04-09T06:37:40;12.63;;;8.87;;
11541;SDS011;5827;49.482;7.716;2023-04-09T06:39:42;12.90;;;10.13;;
11541;SDS011;5827;49.482;7.716;2023-04-09T06:41:43;10.90;;;9.17;;
11541;SDS011;5827;49.482;7.716;2023-04-09T06:43:45;11.13;;;8.57;;
11541;SDS011;5827;49.482;7.716;2023-04-09T06:45:47;11.30;;;8.60;;
11541;SDS011;5827;49.482;7.716;2023-04-09T06:47:48;10.43;;;8.73;;
11541;SDS011;5827;49.482;7.716;2023-04-09T06:49:50;11.60;;;9.17;;
11541;SDS011;5827;49.482;7.716;2023-04-09T06:51:51;10.53;;;8.93;;
11541;SDS011;5827;49.482;7.716;2023-04-09T06:53:54;14.10;;;9.63;;
11541;SDS011;5827;49.482;7.716;2023-04-09T06:55:56;11.60;;;9.20;;
11541;SDS011;5827;49.482;7.716;2023-04-09T06:57:57;13.23;;;9.97;;
11541;SDS011;5827;49.482;7.716;2023-04-09T06:59:59;11.53;;;9.17;;
11541;SDS011;5827;49.482;7.716;2023-04-09T07:02:00;12.53;;;9.93;;
11541;SDS011;5827;49.482;7.716;2023-04-09T07:04:02;12.50;;;9.90;;
11541;SDS011;5827;49.482;7.716;2023-04-09T07:06:04;10.73;;;8.93;;
11541;SDS011;5827;49.482;7.716;2023-04-09T07:08:06;11.57;;;9.30;;
11541;SDS011;5827;49.482;7.716;2023-04-09T07:10:09;11.53;;;9.50;;
11541;SDS011;5827;49.482;7.716;2023-04-09T07:12:11;13.43;;;10.57;;
11541;SDS011;5827;49.482;7.716;2023-04-09T07:14:12;12.27;;;10.20;;
11541;SDS011;5827;49.482;7.716;2023-04-09T07:16:14;13.37;;;10.20;;
11541;SDS011;5827;49.482;7.716;2023-04-09T07:18:15;14.20;;;10.07;;
11541;SDS011;5827;49.482;7.716;2023-04-09T07:20:17;13.40;;;9.50;;
11541;SDS011;5827;49.482;7.716;2023-04-09T07:22:19;11.37;;;9.50;;
11541;SDS011;5827;49.482;7.716;2023-04-09T07:24:21;12.57;;;9.97;;
11541;SDS011;5827;49.482;7.716;2023-04-09T07:26:24;12.50;;;10.03;;
11541;SDS011;5827;49.482;7.716;2023-04-09T07:28:26;14.20;;;10.73;;
11541;SDS011;5827;49.482;7.716;2023-04-09T07:30:27;12.23;;;9.60;;
11541;SDS011;5827;49.482;7.716;2023-04-09T07:32:29;13.63;;;10.17;;
11541;SDS011;5827;49.482;7.716;2023-04-09T07:34:31;14.00;;;10.90;;
11541;SDS011;5827;49.482;7.716;2023-04-09T07:36:32;13.70;;;10.00;;
11541;SDS011;5827;49.482;7.716;2023-04-09T07:38:34;14.80;;;10.90;;
11541;SDS011;5827;49.482;7.716;2023-04-09T07:40:35;14.20;;;11.17;;
11541;SDS011;5827;49.482;7.716;2023-04-09T07:42:38;13.73;;;11.37;;
11541;SDS011;5827;49.482;7.716;2023-04-09T07:44:41;16.73;;;11.67;;
11541;SDS011;5827;49.482;7.716;2023-04-09T07:46:43;14.23;;;10.93;;
11541;SDS011;5827;49.482;7.716;2023-04-09T07:48:44;17.00;;;12.27;;
11541;SDS011;5827;49.482;7.716;2023-04-09T07:50:46;17.03;;;12.50;;
11541;SDS011;5827;49.482;7.716;2023-04-09T07:52:48;15.23;;;11.70;;
11541;SDS011;5827;49.482;7.716;2023-04-09T07:54:49;15.63;;;12.23;;
11541;SDS011;5827;49.482;7.716;2023-04-09T07:56:51;15.57;;;12.13;;
11541;SDS011;5827;49.482;7.716;2023-04-09T07:58:54;17.63;;;12.10;;
11541;SDS011;5827;49.482;7.716;2023-04-09T08:00:55;16.47;;;12.10;;
11541;SDS011;5827;49.482;7.716;2023-04-09T08:02:57;16.50;;;12.70;;
11541;SDS011;5827;49.482;7.716;2023-04-09T08:04:58;15.67;;;12.33;;
11541;SDS011;5827;49.482;7.716;2023-04-09T08:07:00;15.30;;;11.47;;
11541;SDS011;5827;49.482;7.716;2023-04-09T08:09:01;16.87;;;11.63;;
11541;SDS011;5827;49.482;7.716;2023-04-09T08:11:03;16.13;;;12.00;;
11541;SDS011;5827;49.482;7.716;2023-04-09T08:13:06;15.77;;;12.40;;
11541;SDS011;5827;49.482;7.716;2023-04-09T08:15:09;16.00;;;12.10;;
11541;SDS011;5827;49.482;7.716;2023-04-09T08:17:10;16.83;;;11.87;;
11541;SDS011;5827;49.482;7.716;2023-04-09T08:19:12;16.37;;;12.13;;
11541;SDS011;5827;49.482;7.716;2023-04-09T08:21:15;16.73;;;12.10;;
11541;SDS011;5827;49.482;7.716;2023-04-09T08:23:18;15.27;;;11.23;;
11541;SDS011;5827;49.482;7.716;2023-04-09T08:25:20;15.03;;;11.73;;
11541;SDS011;5827;49.482;7.716;2023-04-09T08:27:22;13.97;;;11.47;;
11541;SDS011;5827;49.482;7.716;2023-04-09T08:29:23;15.87;;;11.87;;
11541;SDS011;5827;49.482;7.716;2023-04-09T08:31:26;13.87;;;11.17;;
11541;SDS011;5827;49.482;7.716;2023-04-09T08:33:28;14.00;;;10.47;;
11541;SDS011;5827;49.482;7.716;2023-04-09T08:35:30;12.93;;;10.50;;
11541;SDS011;5827;49.482;7.716;2023-04-09T08:37:31;12.33;;;9.80;;
11541;SDS011;5827;49.482;7.716;2023-04-09T08:39:33;15.03;;;10.90;;
11541;SDS011;5827;49.482;7.716;2023-04-09T08:41:35;14.83;;;11.00;;
11541;SDS011;5827;49.482;7.716;2023-04-09T08:43:41;14.53;;;10.80;;
11541;SDS011;5827;49.482;7.716;2023-04-09T08:45:44;13.13;;;10.87;;
11541;SDS011;5827;49.482;7.716;2023-04-09T08:47:48;12.87;;;10.30;;
11541;SDS011;5827;49.482;7.716;2023-04-09T08:49:50;12.43;;;9.80;;
11541;SDS011;5827;49.482;7.716;2023-04-09T08:51:52;13.20;;;10.40;;
11541;SDS011;5827;49.482;7.716;2023-04-09T08:53:54;12.70;;;10.13;;
11541;SDS011;5827;49.482;7.716;2023-04-09T08:55:57;12.53;;;10.23;;
11541;SDS011;5827;49.482;7.716;2023-04-09T08:57:59;15.43;;;11.23;;
11541;SDS011;5827;49.482;7.716;2023-04-09T09:00:00;14.77;;;10.90;;
11541;SDS011;5827;49.482;7.716;2023-04-09T09:02:05;13.30;;;10.57;;
11541;SDS011;5827;49.482;7.716;2023-04-09T09:04:08;12.90;;;10.60;;
11541;SDS011;5827;49.482;7.716;2023-04-09T09:06:14;10.93;;;9.70;;
11541;SDS011;5827;49.482;7.716;2023-04-09T09:08:22;11.67;;;9.87;;
11541;SDS011;5827;49.482;7.716;2023-04-09T09:10:29;11.63;;;9.60;;
11541;SDS011;5827;49.482;7.716;2023-04-09T09:12:38;10.80;;;9.33;;
11541;SDS011;5827;49.482;7.716;2023-04-09T09:14:40;10.83;;;9.00;;
11541;SDS011;5827;49.482;7.716;2023-04-09T09:16:43;14.13;;;10.07;;
11541;SDS011;5827;49.482;7.716;2023-04-09T09:19:03;19.33;;;14.70;;
11541;SDS011;5827;49.482;7.716;2023-04-09T09:21:12;19.40;;;15.53;;
11541;SDS011;5827;49.482;7.716;2023-04-09T09:23:15;21.70;;;16.63;;
11541;SDS011;5827;49.482;7.716;2023-04-09T09:25:16;12.30;;;10.00;;
11541;SDS011;5827;49.482;7.716;2023-04-09T09:27:31;10.90;;;9.70;;
11541;SDS011;5827;49.482;7.716;2023-04-09T09:29:36;11.10;;;9.57;;
11541;SDS011;5827;49.482;7.716;2023-04-09T09:31:44;10.97;;;8.60;;
11541;SDS011;5827;49.482;7.716;2023-04-09T09:33:48;8.07;;;6.73;;
11541;SDS011;5827;49.482;7.716;2023-04-09T09:35:51;8.07;;;5.97;;
11541;SDS011;5827;49.482;7.716;2023-04-09T09:38:01;7.23;;;6.20;;
11541;SDS011;5827;49.482;7.716;2023-04-09T09:40:04;6.13;;;5.27;;
11541;SDS011;5827;49.482;7.716;2023-04-09T09:42:07;5.67;;;5.17;;
11541;SDS011;5827;49.482;7.716;2023-04-09T09:44:09;5.87;;;5.27;;
11541;SDS011;5827;49.482;7.716;2023-04-09T09:46:12;7.53;;;6.30;;
11541;SDS011;5827;49.482;7.716;2023-04-09T09:48:13;7.33;;;6.13;;
11541;SDS011;5827;49.482;7.716;2023-04-09T09:50:15;6.90;;;6.07;;
11541;SDS011;5827;49.482;7.716;2023-04-09T09:52:19;5.90;;;5.30;;
11541;SDS011;5827;49.482;7.716;2023-04-09T09:54:25;5.97;;;5.20;;
11541;SDS011;5827;49.482;7.716;2023-04-09T09:56:33;6.07;;;5.27;;
11541;SDS011;5827;49.482;7.716;2023-04-09T09:58:39;7.67;;;5.70;;
11541;SDS011;5827;49.482;7.716;2023-04-09T10:00:45;6.50;;;5.40;;
11541;SDS011;5827;49.482;7.716;2023-04-09T10:02:50;6.20;;;5.03;;
11541;SDS011;5827;49.482;7.716;2023-04-09T10:04:56;5.10;;;4.60;;
11541;SDS011;5827;49.482;7.716;2023-04-09T10:07:01;6.63;;;5.93;;
11541;SDS011;5827;49.482;7.716;2023-04-09T10:09:04;5.30;;;4.80;;
11541;SDS011;5827;49.482;7.716;2023-04-09T10:11:08;6.67;;;5.57;;
11541;SDS011;5827;49.482;7.716;2023-04-09T10:13:12;6.03;;;5.43;;
11541;SDS011;5827;49.482;7.716;2023-04-09T10:15:17;5.57;;;4.97;;
11541;SDS011;5827;49.482;7.716;2023-04-09T10:17:19;7.50;;;6.70;;
11541;SDS011;5827;49.482;7.716;2023-04-09T10:19:21;5.77;;;5.13;;
11541;SDS011;5827;49.482;7.716;2023-04-09T10:21:24;5.90;;;5.30;;
11541;SDS011;5827;49.482;7.716;2023-04-09T10:23:35;6.77;;;5.60;;
11541;SDS011;5827;49.482;7.716;2023-04-09T10:25:39;6.53;;;5.80;;
11541;SDS011;5827;49.482;7.716;2023-04-09T10:27:43;5.73;;;5.07;;
11541;SDS011;5827;49.482;7.716;2023-04-09T10:29:48;6.90;;;5.80;;
11541;SDS011;5827;49.482;7.716;2023-04-09T10:31:52;5.67;;;4.67;;
11541;SDS011;5827;49.482;7.716;2023-04-09T10:33:54;4.63;;;4.23;;
11541;SDS011;5827;49.482;7.716;2023-04-09T10:36:04;5.83;;;5.20;;
11541;SDS011;5827;49.482;7.716;2023-04-09T10:38:09;5.03;;;4.30;;
11541;SDS011;5827;49.482;7.716;2023-04-09T10:40:12;5.27;;;4.77;;
11541;SDS011;5827;49.482;7.716;2023-04-09T10:42:20;5.43;;;4.77;;
11541;SDS011;5827;49.482;7.716;2023-04-09T10:44:25;12.33;;;10.87;;
11541;SDS011;5827;49.482;7.716;2023-04-09T10:46:28;4.33;;;3.93;;
11541;SDS011;5827;49.482;7.716;2023-04-09T10:48:33;4.13;;;3.73;;
11541;SDS011;5827;49.482;7.716;2023-04-09T10:50:35;4.10;;;3.70;;
11541;SDS011;5827;49.482;7.716;2023-04-09T10:52:37;4.30;;;3.90;;
11541;SDS011;5827;49.482;7.716;2023-04-09T10:54:42;4.63;;;4.23;;
11541;SDS011;5827;49.482;7.716;2023-04-09T10:59:14;5.33;;;4.43;;
11541;SDS011;5827;49.482;7.716;2023-04-09T11:01:21;15.50;;;7.80;;
11541;SDS011;5827;49.482;7.716;2023-04-09T11:03:23;7.40;;;5.23;;
11541;SDS011;5827;49.482;7.716;2023-04-09T11:05:32;5.47;;;4.93;;
11541;SDS011;5827;49.482;7.716;2023-04-09T11:07:35;4.57;;;3.73;;
11541;SDS011;5827;49.482;7.716;2023-04-09T11:09:41;5.40;;;4.90;;
11541;SDS011;5827;49.482;7.716;2023-04-09T11:11:42;5.03;;;4.53;;
11541;SDS011;5827;49.482;7.716;2023-04-09T11:13:44;5.27;;;4.77;;
11541;SDS011;5827;49.482;7.716;2023-04-09T11:15:46;4.63;;;4.00;;
11541;SDS011;5827;49.482;7.716;2023-04-09T11:17:49;4.40;;;4.00;;
11541;SDS011;5827;49.482;7.716;2023-04-09T11:19:50;4.73;;;4.23;;
11541;SDS011;5827;49.482;7.716;2023-04-09T11:21:52;5.50;;;5.00;;
11541;SDS011;5827;49.482;7.716;2023-04-09T11:23:53;6.07;;;5.33;;
11541;SDS011;5827;49.482;7.716;2023-04-09T11:25:55;5.20;;;4.70;;
11541;SDS011;5827;49.482;7.716;2023-04-09T11:27:56;5.40;;;4.90;;
11541;SDS011;5827;49.482;7.716;2023-04-09T11:29:58;5.00;;;4.50;;
11541;SDS011;5827;49.482;7.716;2023-04-09T11:32:00;5.10;;;4.60;;
11541;SDS011;5827;49.482;7.716;2023-04-09T11:34:02;6.63;;;4.93;;
11541;SDS011;5827;49.482;7.716;2023-04-09T11:36:04;5.40;;;4.80;;
11541;SDS011;5827;49.482;7.716;2023-04-09T11:38:06;5.70;;;4.70;;
11541;SDS011;5827;49.482;7.716;2023-04-09T11:40:13;5.00;;;4.50;;
11541;SDS011;5827;49.482;7.716;2023-04-09T11:42:16;5.00;;;4.47;;
11541;SDS011;5827;49.482;7.716;2023-04-09T11:44:19;4.77;;;4.27;;
11541;SDS011;5827;49.482;7.716;2023-04-09T11:46:20;4.80;;;4.40;;
11541;SDS011;5827;49.482;7.716;2023-04-09T11:48:25;5.37;;;4.60;;
11541;SDS011;5827;49.482;7.716;2023-04-09T11:50:28;5.00;;;4.50;;
11541;SDS011;5827;49.482;7.716;2023-04-09T11:52:30;4.50;;;4.10;;
11541;SDS011;5827;49.482;7.716;2023-04-09T11:54:34;5.20;;;4.70;;
11541;SDS011;5827;49.482;7.716;2023-04-09T11:56:36;4.93;;;4.50;;
11541;SDS011;5827;49.482;7.716;2023-04-09T11:58:38;5.10;;;4.60;;
11541;SDS011;5827;49.482;7.716;2023-04-09T12:00:45;4.77;;;4.33;;
11541;SDS011;5827;49.482;7.716;2023-04-09T12:02:47;5.17;;;4.63;;
11541;SDS011;5827;49.482;7.716;2023-04-09T12:04:50;5.23;;;4.73;;
11541;SDS011;5827;49.482;7.716;2023-04-09T12:06:56;4.70;;;4.30;;
11541;SDS011;5827;49.482;7.716;2023-04-09T12:08:58;4.50;;;4.10;;
11541;SDS011;5827;49.482;7.716;2023-04-09T12:11:06;4.43;;;4.03;;
11541;SDS011;5827;49.482;7.716;2023-04-09T12:13:09;5.03;;;4.63;;
11541;SDS011;5827;49.482;7.716;2023-04-09T12:15:12;4.83;;;4.33;;
11541;SDS011;5827;49.482;7.716;2023-04-09T12:17:19;5.50;;;5.00;;
11541;SDS011;5827;49.482;7.716;2023-04-09T12:19:23;5.60;;;5.10;;
11541;SDS011;5827;49.482;7.716;2023-04-09T12:21:32;5.60;;;5.07;;
11541;SDS011;5827;49.482;7.716;2023-04-09T12:23:46;5.70;;;4.83;;
11541;SDS011;5827;49.482;7.716;2023-04-09T12:25:48;5.30;;;4.80;;
11541;SDS011;5827;49.482;7.716;2023-04-09T12:27:49;5.37;;;4.60;;